createdAt,value
2022-08-27T00:00:15.852Z,21.90
2022-08-27T00:02:45.227Z,21.80
2022-08-27T00:05:17.142Z,21.80
2022-08-27T00:07:45.911Z,21.80
2022-08-27T00:10:19.942Z,21.80
2022-08-27T00:12:50.287Z,21.80
2022-08-27T00:15:21.428Z,21.80
2022-08-27T00:17:49.975Z,21.80
2022-08-27T00:20:22.382Z,21.80
2022-08-27T00:22:50.919Z,21.80
2022-08-27T00:25:19.768Z,21.80
2022-08-27T00:27:49.583Z,21.80
2022-08-27T00:30:21.148Z,21.80
2022-08-27T00:32:50.360Z,21.80
2022-08-27T00:37:47.915Z,21.80
2022-08-27T00:40:20.926Z,21.80
2022-08-27T00:42:50.849Z,21.80
2022-08-27T00:45:25.578Z,21.80
2022-08-27T00:47:56.950Z,21.80
2022-08-27T00:50:34.393Z,21.80
2022-08-27T00:53:08.515Z,21.70
2022-08-27T00:55:43.208Z,21.70
2022-08-27T00:58:20.191Z,21.70
2022-08-27T01:00:49.604Z,21.70
2022-08-27T01:05:48.910Z,21.60
2022-08-27T01:08:23.235Z,21.60
2022-08-27T01:10:52.377Z,21.60
2022-08-27T01:13:58.702Z,21.60
2022-08-27T01:16:19.613Z,21.60
2022-08-27T01:18:48.720Z,21.50
2022-08-27T01:21:33.297Z,21.50
2022-08-27T01:24:09.637Z,21.50
2022-08-27T01:26:39.486Z,21.40
2022-08-27T01:29:07.966Z,21.40
2022-08-27T01:31:36.429Z,21.40
2022-08-27T01:34:07.517Z,21.40
2022-08-27T01:39:05.390Z,21.40
2022-08-27T01:41:34.123Z,21.30
2022-08-27T01:44:04.347Z,21.30
2022-08-27T01:49:01.521Z,21.30
2022-08-27T01:56:27.510Z,21.20
2022-08-27T02:01:26.022Z,21.20
2022-08-27T02:03:54.693Z,21.20
2022-08-27T02:06:23.092Z,21.10
2022-08-27T02:08:51.493Z,21.10
2022-08-27T02:13:48.692Z,21.10
2022-08-27T02:16:17.096Z,21.10
2022-08-27T02:18:47.296Z,21.10
2022-08-27T02:26:14.341Z,21.00
2022-08-27T02:31:12.036Z,21.00
2022-08-27T02:36:11.086Z,20.90
2022-08-27T02:41:08.433Z,20.90
2022-08-27T02:43:36.844Z,20.80
2022-08-27T02:46:05.845Z,20.80
2022-08-27T02:48:37.234Z,20.80
2022-08-27T02:51:06.161Z,20.80
2022-08-27T02:53:37.883Z,20.80
2022-08-27T02:56:07.527Z,20.80
2022-08-27T02:58:35.894Z,20.70
2022-08-27T03:01:05.668Z,20.70
2022-08-27T03:03:39.841Z,21.10
2022-08-27T03:06:09.523Z,20.70
2022-08-27T03:08:53.109Z,20.70
2022-08-27T03:11:23.078Z,20.70
2022-08-27T03:13:52.073Z,20.60
2022-08-27T03:16:21.202Z,20.70
2022-08-27T03:18:48.827Z,20.70
2022-08-27T03:21:19.963Z,20.60
2022-08-27T03:23:50.094Z,20.70
2022-08-27T03:26:20.344Z,20.70
2022-08-27T03:28:49.254Z,20.70
2022-08-27T03:31:26.815Z,20.70
2022-08-27T03:33:58.359Z,20.70
2022-08-27T03:36:27.527Z,20.70
2022-08-27T03:38:58.115Z,20.70
2022-08-27T03:41:47.257Z,20.70
2022-08-27T03:44:18.159Z,20.80
2022-08-27T03:46:50.633Z,20.80
2022-08-27T03:49:20.716Z,20.80
2022-08-27T03:51:50.268Z,20.80
2022-08-27T03:54:20.549Z,20.80
2022-08-27T03:56:49.033Z,20.80
2022-08-27T03:59:17.912Z,20.80
2022-08-27T04:01:46.762Z,20.80
2022-08-27T04:06:43.968Z,20.80
2022-08-27T04:11:42.501Z,20.90
2022-08-27T04:14:19.920Z,20.90
2022-08-27T04:16:55.877Z,20.90
2022-08-27T04:19:27.644Z,20.90
2022-08-27T04:22:02.116Z,20.90
2022-08-27T04:24:32.887Z,20.90
2022-08-27T04:27:03.816Z,20.90
2022-08-27T04:29:32.697Z,20.90
2022-08-27T04:32:01.176Z,20.90
2022-08-27T04:34:30.078Z,20.90
2022-08-27T04:36:58.906Z,20.90
2022-08-27T04:39:28.868Z,20.90
2022-08-27T04:42:00.441Z,20.90
2022-08-27T04:44:34.769Z,20.90
2022-08-27T04:47:05.999Z,20.90
2022-08-27T04:52:05.093Z,20.90
2022-08-27T04:54:34.362Z,20.90
2022-08-27T04:57:04.146Z,20.80
2022-08-27T04:59:35.557Z,20.80
2022-08-27T05:02:09.415Z,20.80
2022-08-27T05:04:40.167Z,20.80
2022-08-27T05:07:10.409Z,20.80
2022-08-27T05:12:08.601Z,20.80
2022-08-27T05:14:38.375Z,20.80
2022-08-27T05:17:06.825Z,20.80
2022-08-27T05:19:35.254Z,20.80
2022-08-27T05:22:03.809Z,20.80
2022-08-27T05:24:32.427Z,20.80
2022-08-27T05:29:31.121Z,20.80
2022-08-27T05:32:00.880Z,20.80
2022-08-27T05:34:29.853Z,20.80
2022-08-27T05:39:27.483Z,20.80
2022-08-27T05:41:58.619Z,20.80
2022-08-27T05:44:42.572Z,20.80
2022-08-27T05:47:12.761Z,20.90
2022-08-27T05:49:41.138Z,20.90
2022-08-27T05:52:11.566Z,20.90
2022-08-27T05:54:40.936Z,20.90
2022-08-27T05:57:09.321Z,20.80
2022-08-27T06:02:26.473Z,20.80
2022-08-27T06:07:23.709Z,20.90
2022-08-27T06:09:52.081Z,20.90
2022-08-27T06:14:57.571Z,21.00
2022-08-27T06:17:27.708Z,21.00
2022-08-27T06:19:56.436Z,21.00
2022-08-27T06:22:25.381Z,21.10
2022-08-27T06:24:54.046Z,21.10
2022-08-27T06:27:22.487Z,21.10
2022-08-27T06:29:51.051Z,21.20
2022-08-27T06:32:19.920Z,21.30
2022-08-27T06:34:49.960Z,21.40
2022-08-27T06:37:18.428Z,21.50
2022-08-27T06:39:46.804Z,21.50
2022-08-27T06:42:15.215Z,21.60
2022-08-27T06:44:43.678Z,21.70
2022-08-27T06:47:13.031Z,21.70
2022-08-27T06:49:43.856Z,21.80
2022-08-27T06:52:16.652Z,21.90
2022-08-27T06:54:45.768Z,22.00
2022-08-27T06:57:14.109Z,22.00
2022-08-27T06:59:42.508Z,22.00
2022-08-27T07:02:11.034Z,22.10
2022-08-27T07:04:39.424Z,22.10
2022-08-27T07:07:08.233Z,22.10
2022-08-27T07:09:38.023Z,22.10
2022-08-27T07:12:07.751Z,22.10
2022-08-27T07:14:38.335Z,22.10
2022-08-27T07:17:08.587Z,22.10
2022-08-27T07:19:41.256Z,22.10
2022-08-27T07:22:10.808Z,22.20
2022-08-27T07:24:40.999Z,22.20
2022-08-27T07:27:09.701Z,22.20
2022-08-27T07:29:38.216Z,22.20
2022-08-27T07:32:07.017Z,22.20
2022-08-27T07:34:35.377Z,22.20
2022-08-27T07:37:03.835Z,22.10
2022-08-27T07:39:32.216Z,22.20
2022-08-27T07:42:19.697Z,22.10
2022-08-27T07:44:48.199Z,22.10
2022-08-27T07:47:16.610Z,22.10
2022-08-27T07:49:45.048Z,22.10
2022-08-27T07:52:13.901Z,22.10
2022-08-27T07:54:42.318Z,22.10
2022-08-27T07:57:12.905Z,22.10
2022-08-27T08:02:10.146Z,22.10
2022-08-27T08:04:38.612Z,22.20
2022-08-27T08:07:07.175Z,22.10
2022-08-27T08:09:35.557Z,22.10
2022-08-27T08:12:04.516Z,22.20
2022-08-27T08:14:34.681Z,22.20
2022-08-27T08:17:03.983Z,22.20
2022-08-27T08:19:40.313Z,22.30
2022-08-27T08:22:08.895Z,22.30
2022-08-27T08:24:37.984Z,22.30
2022-08-27T08:27:07.953Z,22.30
2022-08-27T08:29:38.919Z,22.40
2022-08-27T08:32:08.889Z,22.40
2022-08-27T08:34:37.543Z,22.50
2022-08-27T08:37:08.408Z,22.50
2022-08-27T08:39:38.117Z,22.60
2022-08-27T08:42:11.876Z,22.70
2022-08-27T08:44:48.478Z,22.80
2022-08-27T08:47:22.724Z,22.80
2022-08-27T08:49:57.473Z,22.90
2022-08-27T08:52:39.547Z,22.90
2022-08-27T08:55:23.210Z,23.00
2022-08-27T08:58:01.886Z,23.20
2022-08-27T09:00:31.842Z,23.30
2022-08-27T09:03:00.284Z,23.40
2022-08-27T09:05:28.737Z,23.60
2022-08-27T09:08:33.041Z,23.80
2022-08-27T09:11:06.792Z,23.80
2022-08-27T09:13:39.975Z,24.00
2022-08-27T09:16:11.453Z,24.10
2022-08-27T09:18:45.345Z,24.20
2022-08-27T09:21:28.288Z,24.30
2022-08-27T09:24:07.965Z,24.40
2022-08-27T09:26:41.714Z,24.70
2022-08-27T09:29:17.089Z,24.80
2022-08-27T09:31:53.984Z,24.80
2022-08-27T09:34:23.116Z,24.80
2022-08-27T09:37:03.749Z,24.80
2022-08-27T09:39:42.524Z,24.80
2022-08-27T09:42:33.635Z,24.80
2022-08-27T09:45:02.313Z,24.90
2022-08-27T09:47:45.088Z,24.90
2022-08-27T09:50:20.740Z,24.80
2022-08-27T09:52:55.811Z,24.90
2022-08-27T09:55:48.208Z,25.00
2022-08-27T09:58:21.602Z,25.00
2022-08-27T10:00:59.665Z,25.00
2022-08-27T10:03:33.219Z,25.00
2022-08-27T10:06:02.405Z,24.90
2022-08-27T10:08:42.133Z,24.90
2022-08-27T10:11:17.114Z,24.90
2022-08-27T10:13:57.809Z,24.90
2022-08-27T10:16:54.579Z,25.00
2022-08-27T10:19:47.630Z,24.90
2022-08-27T10:22:31.915Z,25.10
2022-08-27T10:25:23.423Z,25.30
2022-08-27T10:28:07.212Z,25.60
2022-08-27T10:30:59.781Z,25.60
2022-08-27T10:33:41.335Z,26.20
2022-08-27T10:36:27.191Z,26.20
2022-08-27T10:39:06.316Z,26.70
2022-08-27T10:41:39.746Z,27.20
2022-08-27T10:44:37.603Z,27.50
2022-08-27T10:47:37.118Z,27.80
2022-08-27T10:50:09.061Z,27.90
2022-08-27T10:52:45.172Z,27.90
2022-08-27T10:55:21.333Z,27.80
2022-08-27T10:58:22.149Z,27.70
2022-08-27T11:00:59.405Z,27.70
2022-08-27T11:03:37.741Z,27.70
2022-08-27T11:06:20.617Z,27.60
2022-08-27T11:08:56.553Z,27.60
2022-08-27T11:14:34.082Z,27.50
2022-08-27T11:17:14.212Z,27.50
2022-08-27T11:19:54.463Z,27.50
2022-08-27T11:22:31.263Z,27.70
2022-08-27T11:25:11.796Z,27.70
2022-08-27T11:27:42.019Z,28.10
2022-08-27T11:30:24.326Z,28.10
2022-08-27T11:33:04.840Z,28.30
2022-08-27T11:35:47.918Z,28.70
2022-08-27T11:38:38.252Z,29.30
2022-08-27T11:41:45.025Z,30.30
2022-08-27T11:44:14.922Z,30.30
2022-08-27T11:46:49.025Z,30.90
2022-08-27T11:49:29.465Z,31.30
2022-08-27T11:52:04.020Z,31.80
2022-08-27T11:54:45.362Z,31.90
2022-08-27T11:57:33.696Z,31.90
2022-08-27T12:00:18.565Z,31.10
2022-08-27T12:02:57.757Z,31.00
2022-08-27T12:05:38.368Z,30.10
2022-08-27T12:08:29.993Z,29.70
2022-08-27T12:11:24.033Z,29.40
2022-08-27T12:14:01.825Z,29.20
2022-08-27T12:16:40.997Z,29.10
2022-08-27T12:19:32.174Z,28.80
2022-08-27T12:22:20.121Z,28.60
2022-08-27T12:24:55.839Z,28.30
2022-08-27T12:27:35.524Z,28.00
2022-08-27T12:30:22.015Z,27.60
2022-08-27T12:32:52.966Z,27.50
2022-08-27T12:35:27.569Z,27.50
2022-08-27T12:38:12.961Z,27.30
2022-08-27T12:40:47.431Z,27.20
2022-08-27T12:43:20.469Z,27.00
2022-08-27T12:45:52.826Z,26.90
2022-08-27T12:48:31.439Z,26.80
2022-08-27T12:51:05.461Z,26.60
2022-08-27T12:53:45.215Z,26.50
2022-08-27T12:56:54.966Z,26.50
2022-08-27T12:59:50.109Z,26.40
2022-08-27T13:02:43.569Z,26.40
2022-08-27T13:05:13.317Z,26.50
2022-08-27T13:07:46.199Z,26.50
2022-08-27T13:10:18.888Z,26.50
2022-08-27T13:12:49.547Z,26.50
2022-08-27T13:15:20.793Z,26.30
2022-08-27T13:17:51.634Z,26.20
2022-08-27T13:20:23.969Z,26.10
2022-08-27T13:22:54.987Z,26.10
2022-08-27T13:25:28.825Z,26.10
2022-08-27T13:28:07.661Z,26.30
2022-08-27T13:30:38.560Z,26.30
2022-08-27T13:33:23.647Z,26.30
2022-08-27T13:35:52.463Z,26.30
2022-08-27T13:38:23.407Z,26.30
2022-08-27T13:40:59.586Z,26.20
2022-08-27T13:43:36.377Z,26.30
2022-08-27T13:46:11.159Z,26.30
2022-08-27T13:48:45.579Z,26.40
2022-08-27T13:51:15.839Z,26.40
2022-08-27T13:54:06.136Z,26.40
2022-08-27T13:56:37.805Z,26.40
2022-08-27T13:59:12.323Z,26.60
2022-08-27T14:01:44.523Z,26.60
2022-08-27T14:04:25.284Z,26.70
2022-08-27T14:06:54.783Z,26.80
2022-08-27T14:09:27.470Z,26.80
2022-08-27T14:12:05.605Z,26.90
2022-08-27T14:14:40.103Z,27.20
2022-08-27T14:17:25.770Z,27.10
2022-08-27T14:20:04.419Z,27.20
2022-08-27T14:22:35.274Z,27.20
2022-08-27T14:25:04.105Z,27.30
2022-08-27T14:27:32.601Z,27.30
2022-08-27T14:30:00.916Z,27.50
2022-08-27T14:32:29.383Z,27.50
2022-08-27T14:34:58.063Z,27.90
2022-08-27T14:37:28.032Z,27.90
2022-08-27T14:39:56.621Z,28.60
2022-08-27T14:42:25.014Z,29.40
2022-08-27T14:44:57.301Z,30.20
2022-08-27T14:47:33.593Z,30.70
2022-08-27T14:50:03.077Z,30.90
2022-08-27T14:52:32.829Z,31.10
2022-08-27T14:55:01.189Z,31.20
2022-08-27T14:57:29.551Z,31.40
2022-08-27T14:59:57.814Z,31.80
2022-08-27T15:02:26.141Z,32.20
2022-08-27T15:04:54.627Z,32.40
2022-08-27T15:07:23.578Z,32.40
2022-08-27T15:09:55.394Z,32.30
2022-08-27T15:12:26.279Z,32.10
2022-08-27T15:14:55.568Z,31.30
2022-08-27T15:17:35.451Z,31.30
2022-08-27T15:20:08.436Z,30.10
2022-08-27T15:22:44.129Z,29.70
2022-08-27T15:25:16.309Z,29.30
2022-08-27T15:27:44.713Z,29.10
2022-08-27T15:30:16.170Z,29.10
2022-08-27T15:32:47.973Z,29.20
2022-08-27T15:35:19.703Z,29.30
2022-08-27T15:37:48.240Z,29.40
2022-08-27T15:40:19.914Z,29.40
2022-08-27T15:43:02.038Z,29.40
2022-08-27T15:45:32.487Z,29.50
2022-08-27T15:48:01.574Z,29.20
2022-08-27T15:50:32.128Z,28.90
2022-08-27T15:53:04.159Z,28.80
2022-08-27T15:55:36.716Z,28.60
2022-08-27T15:58:06.114Z,28.30
2022-08-27T16:00:36.219Z,28.10
2022-08-27T16:03:09.195Z,27.80
2022-08-27T16:05:40.300Z,27.50
2022-08-27T16:08:09.200Z,27.20
2022-08-27T16:10:39.472Z,27.10
2022-08-27T16:13:07.896Z,26.90
2022-08-27T16:15:40.553Z,26.70
2022-08-27T16:18:10.770Z,26.50
2022-08-27T16:20:39.225Z,26.40
2022-08-27T16:25:36.432Z,26.50
2022-08-27T16:28:06.446Z,26.80
2022-08-27T16:30:34.839Z,27.10
2022-08-27T16:33:03.234Z,27.20
2022-08-27T16:35:31.785Z,28.80
2022-08-27T16:38:00.196Z,27.50
2022-08-27T16:40:28.836Z,27.80
2022-08-27T16:42:57.743Z,27.90
2022-08-27T16:45:27.360Z,28.00
2022-08-27T16:48:13.473Z,28.10
2022-08-27T16:50:42.535Z,28.10
2022-08-27T16:53:14.377Z,28.20
2022-08-27T16:55:44.900Z,28.20
2022-08-27T16:58:19.524Z,28.20
2022-08-27T17:00:52.450Z,28.10
2022-08-27T17:03:23.639Z,28.10
2022-08-27T17:05:53.359Z,28.20
2022-08-27T17:08:26.122Z,28.10
2022-08-27T17:10:57.392Z,27.90
2022-08-27T17:13:28.877Z,27.80
2022-08-27T17:16:01.699Z,27.70
2022-08-27T17:18:30.424Z,27.60
2022-08-27T17:21:01.555Z,27.40
2022-08-27T17:23:35.788Z,27.30
2022-08-27T17:26:06.147Z,27.20
2022-08-27T17:28:34.957Z,27.10
2022-08-27T17:31:04.790Z,26.90
2022-08-27T17:33:37.034Z,26.70
2022-08-27T17:36:07.064Z,26.50
2022-08-27T17:41:13.809Z,26.00
2022-08-27T17:43:43.378Z,25.70
2022-08-27T17:46:13.779Z,25.50
2022-08-27T17:48:43.005Z,25.30
2022-08-27T17:51:13.484Z,25.00
2022-08-27T17:53:48.136Z,24.90
2022-08-27T17:56:17.318Z,24.90
2022-08-27T18:01:17.280Z,24.40
2022-08-27T18:03:47.707Z,24.30
2022-08-27T18:06:17.079Z,24.20
2022-08-27T18:08:45.568Z,24.10
2022-08-27T18:11:16.706Z,24.00
2022-08-27T18:13:48.072Z,23.90
2022-08-27T18:16:17.893Z,23.80
2022-08-27T18:18:46.241Z,23.70
2022-08-27T18:23:54.743Z,23.50
2022-08-27T18:26:28.664Z,23.50
2022-08-27T18:28:58.012Z,23.40
2022-08-27T18:31:33.379Z,23.30
2022-08-27T18:34:02.289Z,23.30
2022-08-27T18:36:31.418Z,23.20
2022-08-27T18:41:31.548Z,23.10
2022-08-27T18:46:30.733Z,23.00
2022-08-27T18:48:59.074Z,22.90
2022-08-27T18:51:28.438Z,22.90
2022-08-27T18:54:05.175Z,22.80
2022-08-27T18:59:02.408Z,22.80
2022-08-27T19:01:32.165Z,22.80
2022-08-27T19:04:00.735Z,22.70
2022-08-27T19:06:29.212Z,22.70
2022-08-27T19:08:57.915Z,22.80
2022-08-27T19:13:54.969Z,22.70
2022-08-27T19:16:40.144Z,22.70
2022-08-27T19:19:08.968Z,22.70
2022-08-27T19:21:38.167Z,22.60
2022-08-27T19:24:08.293Z,22.60
2022-08-27T19:26:36.825Z,22.60
2022-08-27T19:29:05.468Z,22.50
2022-08-27T19:31:36.526Z,22.50
2022-08-27T19:34:05.813Z,22.50
2022-08-27T19:36:38.348Z,22.50
2022-08-27T19:39:07.768Z,22.50
2022-08-27T19:41:36.070Z,22.50
2022-08-27T19:44:07.184Z,22.60
2022-08-27T19:46:37.845Z,22.60
2022-08-27T19:49:06.165Z,22.60
2022-08-27T19:51:34.547Z,22.60
2022-08-27T19:56:32.642Z,22.50
2022-08-27T19:59:13.411Z,22.50
2022-08-27T20:01:50.494Z,22.50
2022-08-27T20:04:18.851Z,22.50
2022-08-27T20:09:17.963Z,22.40
2022-08-27T20:11:47.512Z,22.40
2022-08-27T20:14:15.964Z,22.40
2022-08-27T20:16:47.028Z,22.40
2022-08-27T20:19:18.114Z,22.30
2022-08-27T20:24:15.188Z,22.30
2022-08-27T20:31:51.989Z,22.30
2022-08-27T20:34:21.692Z,22.20
2022-08-27T20:36:52.636Z,22.20
2022-08-27T20:39:21.727Z,22.20
2022-08-27T20:41:51.580Z,22.20
2022-08-27T20:44:19.932Z,22.10
2022-08-27T20:46:51.127Z,22.10
2022-08-27T20:49:22.208Z,22.10
2022-08-27T20:54:33.690Z,22.00
2022-08-27T20:57:03.272Z,22.10
2022-08-27T20:59:49.753Z,22.00
2022-08-27T21:02:28.708Z,21.90
2022-08-27T21:04:58.965Z,21.90
2022-08-27T21:07:27.340Z,21.80
2022-08-27T21:09:57.567Z,21.80
2022-08-27T21:12:27.599Z,21.70
2022-08-27T21:14:56.778Z,21.70
2022-08-27T21:17:29.018Z,21.60
2022-08-27T21:19:58.773Z,21.60
2022-08-27T21:22:27.791Z,21.50
2022-08-27T21:24:57.068Z,21.50
2022-08-27T21:29:54.404Z,21.50
2022-08-27T21:32:22.956Z,21.40
2022-08-27T21:34:51.351Z,21.40
2022-08-27T21:37:21.572Z,21.40
2022-08-27T21:39:49.879Z,21.30
2022-08-27T21:44:47.059Z,21.30
2022-08-27T21:49:44.300Z,21.30
2022-08-27T21:54:43.684Z,21.20
2022-08-27T21:57:15.546Z,21.20
2022-08-27T21:59:47.398Z,21.20
2022-08-27T22:02:38.730Z,21.20
2022-08-27T22:05:07.490Z,21.20
2022-08-27T22:07:36.403Z,21.20
2022-08-27T22:10:08.015Z,21.20
2022-08-27T22:12:36.945Z,21.20
2022-08-27T22:15:07.620Z,21.20
2022-08-27T22:17:36.344Z,21.20
2022-08-27T22:20:06.853Z,21.20
2022-08-27T22:22:35.452Z,21.20
2022-08-27T22:25:06.731Z,21.20
2022-08-27T22:27:35.156Z,21.20
2022-08-27T22:30:03.519Z,21.20
2022-08-27T22:32:32.687Z,21.20
2022-08-27T22:37:30.003Z,21.10
2022-08-27T22:39:58.331Z,23.10
2022-08-27T22:42:28.102Z,21.10
2022-08-27T22:44:56.366Z,21.10
2022-08-27T22:47:24.724Z,21.10
2022-08-27T22:49:53.090Z,21.00
2022-08-27T22:52:28.273Z,21.00
2022-08-27T22:57:25.532Z,20.90
2022-08-27T22:59:55.291Z,20.90
2022-08-27T23:02:23.644Z,20.90
2022-08-27T23:04:55.941Z,20.80
2022-08-27T23:12:23.063Z,20.80
2022-08-27T23:14:51.406Z,20.80
2022-08-27T23:17:21.373Z,20.70
2022-08-27T23:19:49.675Z,20.70
2022-08-27T23:22:18.412Z,20.70
2022-08-27T23:25:04.289Z,20.60
2022-08-27T23:27:32.709Z,20.60
2022-08-27T23:30:04.853Z,20.60
2022-08-27T23:32:35.188Z,20.60
2022-08-27T23:35:05.290Z,20.50
2022-08-27T23:37:33.983Z,20.60
2022-08-27T23:40:02.535Z,20.60
2022-08-27T23:42:31.053Z,20.50
2022-08-27T23:47:27.998Z,20.50
2022-08-27T23:49:57.677Z,20.50
2022-08-27T23:52:26.003Z,20.50
2022-08-27T23:54:54.472Z,20.50
2022-08-27T23:57:22.836Z,20.50
2022-08-27T23:59:51.147Z,20.50
